sensor_id;sensor_type;location;lat;lon;timestamp;temperature;humidity
16174;DHT22;14031;50.158;8.626;2023-05-10T00:00:22;16.00;99.90
16174;DHT22;14031;50.158;8.626;2023-05-10T00:02:49;16.00;99.90
16174;DHT22;14031;50.158;8.626;2023-05-10T00:05:16;16.00;99.90
16174;DHT22;14031;50.158;8.626;2023-05-10T00:07:44;16.00;99.90
16174;DHT22;14031;50.158;8.626;2023-05-10T00:10:11;16.00;99.90
16174;DHT22;14031;50.158;8.626;2023-05-10T00:12:38;16.00;99.90
16174;DHT22;14031;50.158;8.626;2023-05-10T00:15:06;15.90;99.90
16174;DHT22;14031;50.158;8.626;2023-05-10T00:17:32;15.90;99.90
16174;DHT22;14031;50.158;8.626;2023-05-10T00:19:59;15.90;99.90
16174;DHT22;14031;50.158;8.626;2023-05-10T00:22:26;16.00;99.90
16174;DHT22;14031;50.158;8.626;2023-05-10T00:24:54;16.00;99.90
16174;DHT22;14031;50.158;8.626;2023-05-10T00:27:21;16.00;99.90
16174;DHT22;14031;50.158;8.626;2023-05-10T00:29:47;15.90;99.90
16174;DHT22;14031;50.158;8.626;2023-05-10T00:32:14;16.00;99.90
16174;DHT22;14031;50.158;8.626;2023-05-10T00:34:42;16.00;99.90
16174;DHT22;14031;50.158;8.626;2023-05-10T00:37:08;16.00;99.90
16174;DHT22;14031;50.158;8.626;2023-05-10T00:39:35;16.00;99.90
16174;DHT22;14031;50.158;8.626;2023-05-10T00:42:04;16.00;99.90
16174;DHT22;14031;50.158;8.626;2023-05-10T00:44:30;16.00;99.90
16174;DHT22;14031;50.158;8.626;2023-05-10T00:46:58;16.10;99.90
16174;DHT22;14031;50.158;8.626;2023-05-10T00:49:25;16.00;99.90
16174;DHT22;14031;50.158;8.626;2023-05-10T00:51:52;16.00;99.90
16174;DHT22;14031;50.158;8.626;2023-05-10T00:54:19;16.00;99.90
16174;DHT22;14031;50.158;8.626;2023-05-10T00:56:46;15.90;99.90
16174;DHT22;14031;50.158;8.626;2023-05-10T00:59:16;15.90;99.90
16174;DHT22;14031;50.158;8.626;2023-05-10T01:01:43;15.90;99.90
16174;DHT22;14031;50.158;8.626;2023-05-10T01:04:10;15.90;99.90
16174;DHT22;14031;50.158;8.626;2023-05-10T01:06:38;15.90;99.90
16174;DHT22;14031;50.158;8.626;2023-05-10T01:12:51;15.80;99.90
16174;DHT22;14031;50.158;8.626;2023-05-10T01:15:20;15.80;99.90
16174;DHT22;14031;50.158;8.626;2023-05-10T01:17:49;15.80;99.90
16174;DHT22;14031;50.158;8.626;2023-05-10T01:20:16;15.80;99.90
16174;DHT22;14031;50.158;8.626;2023-05-10T01:22:58;15.80;99.90
16174;DHT22;14031;50.158;8.626;2023-05-10T01:34:42;15.70;99.90
16174;DHT22;14031;50.158;8.626;2023-05-10T01:37:20;15.70;99.90
16174;DHT22;14031;50.158;8.626;2023-05-10T01:39:52;15.70;99.90
16174;DHT22;14031;50.158;8.626;2023-05-10T01:42:26;15.60;99.90
16174;DHT22;14031;50.158;8.626;2023-05-10T01:45:00;15.60;99.90
16174;DHT22;14031;50.158;8.626;2023-05-10T01:47:37;15.50;99.90
16174;DHT22;14031;50.158;8.626;2023-05-10T01:50:10;15.50;99.90
16174;DHT22;14031;50.158;8.626;2023-05-10T01:52:42;15.50;99.90
16174;DHT22;14031;50.158;8.626;2023-05-10T01:55:14;15.50;99.90
16174;DHT22;14031;50.158;8.626;2023-05-10T01:57:43;15.50;99.90
16174;DHT22;14031;50.158;8.626;2023-05-10T02:00:12;15.50;99.90
16174;DHT22;14031;50.158;8.626;2023-05-10T02:02:42;15.50;99.90
16174;DHT22;14031;50.158;8.626;2023-05-10T02:05:13;15.40;99.90
16174;DHT22;14031;50.158;8.626;2023-05-10T02:07:41;15.40;99.90
16174;DHT22;14031;50.158;8.626;2023-05-10T02:10:09;15.40;99.90
16174;DHT22;14031;50.158;8.626;2023-05-10T02:12:41;15.40;99.90
16174;DHT22;14031;50.158;8.626;2023-05-10T02:15:10;15.40;99.90
16174;DHT22;14031;50.158;8.626;2023-05-10T02:17:39;15.40;99.90
16174;DHT22;14031;50.158;8.626;2023-05-10T02:20:08;15.40;99.90
16174;DHT22;14031;50.158;8.626;2023-05-10T02:22:39;15.40;99.90
16174;DHT22;14031;50.158;8.626;2023-05-10T02:25:07;15.50;99.90
16174;DHT22;14031;50.158;8.626;2023-05-10T02:27:36;15.50;99.90
16174;DHT22;14031;50.158;8.626;2023-05-10T02:30:05;15.40;99.90
16174;DHT22;14031;50.158;8.626;2023-05-10T02:32:34;15.40;99.90
16174;DHT22;14031;50.158;8.626;2023-05-10T02:35:02;15.40;99.90
16174;DHT22;14031;50.158;8.626;2023-05-10T02:37:29;15.40;99.90
16174;DHT22;14031;50.158;8.626;2023-05-10T02:39:59;15.40;99.90
16174;DHT22;14031;50.158;8.626;2023-05-10T02:42:29;15.40;99.90
16174;DHT22;14031;50.158;8.626;2023-05-10T02:45:01;15.30;99.90
16174;DHT22;14031;50.158;8.626;2023-05-10T02:47:28;15.30;99.90
16174;DHT22;14031;50.158;8.626;2023-05-10T02:49:55;15.30;99.90
16174;DHT22;14031;50.158;8.626;2023-05-10T02:52:24;15.30;99.90
16174;DHT22;14031;50.158;8.626;2023-05-10T02:54:55;15.30;99.90
16174;DHT22;14031;50.158;8.626;2023-05-10T02:57:27;15.30;99.90
16174;DHT22;14031;50.158;8.626;2023-05-10T02:59:55;15.30;99.90
16174;DHT22;14031;50.158;8.626;2023-05-10T03:02:22;15.30;99.90
16174;DHT22;14031;50.158;8.626;2023-05-10T03:04:48;15.30;99.90
16174;DHT22;14031;50.158;8.626;2023-05-10T03:07:15;15.30;99.90
16174;DHT22;14031;50.158;8.626;2023-05-10T03:09:44;15.20;99.90
16174;DHT22;14031;50.158;8.626;2023-05-10T03:12:15;15.20;99.90
16174;DHT22;14031;50.158;8.626;2023-05-10T03:14:53;15.20;99.90
16174;DHT22;14031;50.158;8.626;2023-05-10T03:17:29;15.20;99.90
16174;DHT22;14031;50.158;8.626;2023-05-10T03:19:57;15.20;99.90
16174;DHT22;14031;50.158;8.626;2023-05-10T03:22:28;15.20;99.90
16174;DHT22;14031;50.158;8.626;2023-05-10T03:24:57;15.10;99.90
16174;DHT22;14031;50.158;8.626;2023-05-10T03:27:26;15.20;99.90
16174;DHT22;14031;50.158;8.626;2023-05-10T03:29:55;15.10;99.90
16174;DHT22;14031;50.158;8.626;2023-05-10T03:32:23;15.20;99.90
16174;DHT22;14031;50.158;8.626;2023-05-10T03:34:50;15.10;99.90
16174;DHT22;14031;50.158;8.626;2023-05-10T03:37:17;15.10;99.90
16174;DHT22;14031;50.158;8.626;2023-05-10T03:39:44;15.10;99.90
16174;DHT22;14031;50.158;8.626;2023-05-10T03:42:11;15.10;99.90
16174;DHT22;14031;50.158;8.626;2023-05-10T03:44:38;15.10;99.90
16174;DHT22;14031;50.158;8.626;2023-05-10T03:47:06;15.10;99.90
16174;DHT22;14031;50.158;8.626;2023-05-10T03:49:33;15.20;99.90
16174;DHT22;14031;50.158;8.626;2023-05-10T03:52:00;15.10;99.90
16174;DHT22;14031;50.158;8.626;2023-05-10T03:54:26;15.10;99.90
16174;DHT22;14031;50.158;8.626;2023-05-10T03:56:53;15.20;99.90
16174;DHT22;14031;50.158;8.626;2023-05-10T03:59:20;15.10;99.90
16174;DHT22;14031;50.158;8.626;2023-05-10T04:01:47;15.10;99.90
16174;DHT22;14031;50.158;8.626;2023-05-10T04:04:15;15.00;99.90
16174;DHT22;14031;50.158;8.626;2023-05-10T04:06:44;15.10;99.90
16174;DHT22;14031;50.158;8.626;2023-05-10T04:09:10;15.10;99.90
16174;DHT22;14031;50.158;8.626;2023-05-10T04:11:37;15.20;99.90
16174;DHT22;14031;50.158;8.626;2023-05-10T04:14:04;15.20;99.90
16174;DHT22;14031;50.158;8.626;2023-05-10T04:16:31;15.20;99.90
16174;DHT22;14031;50.158;8.626;2023-05-10T04:18:58;15.10;99.90
16174;DHT22;14031;50.158;8.626;2023-05-10T04:21:26;15.20;99.90
16174;DHT22;14031;50.158;8.626;2023-05-10T04:23:53;15.10;99.90
16174;DHT22;14031;50.158;8.626;2023-05-10T04:26:20;15.10;99.90
16174;DHT22;14031;50.158;8.626;2023-05-10T04:28:47;15.20;99.90
16174;DHT22;14031;50.158;8.626;2023-05-10T04:31:14;15.20;99.90
16174;DHT22;14031;50.158;8.626;2023-05-10T04:33:40;15.20;99.90
16174;DHT22;14031;50.158;8.626;2023-05-10T04:36:07;15.20;99.90
16174;DHT22;14031;50.158;8.626;2023-05-10T04:38:36;15.20;99.90
16174;DHT22;14031;50.158;8.626;2023-05-10T04:41:06;15.20;99.90
16174;DHT22;14031;50.158;8.626;2023-05-10T04:43:33;15.30;99.90
16174;DHT22;14031;50.158;8.626;2023-05-10T04:46:00;15.30;99.90
16174;DHT22;14031;50.158;8.626;2023-05-10T04:48:26;15.30;99.90
16174;DHT22;14031;50.158;8.626;2023-05-10T04:50:53;15.30;99.90
16174;DHT22;14031;50.158;8.626;2023-05-10T04:53:29;15.40;99.90
16174;DHT22;14031;50.158;8.626;2023-05-10T04:55:57;15.30;99.90
16174;DHT22;14031;50.158;8.626;2023-05-10T04:58:24;15.40;99.90
16174;DHT22;14031;50.158;8.626;2023-05-10T05:00:51;15.50;99.90
16174;DHT22;14031;50.158;8.626;2023-05-10T05:03:18;15.60;99.90
16174;DHT22;14031;50.158;8.626;2023-05-10T05:05:44;15.60;99.90
16174;DHT22;14031;50.158;8.626;2023-05-10T05:08:11;15.60;99.90
16174;DHT22;14031;50.158;8.626;2023-05-10T05:10:38;15.70;99.90
16174;DHT22;14031;50.158;8.626;2023-05-10T05:13:06;15.70;99.90
16174;DHT22;14031;50.158;8.626;2023-05-10T05:15:33;15.70;99.90
16174;DHT22;14031;50.158;8.626;2023-05-10T05:18:00;15.70;99.90
16174;DHT22;14031;50.158;8.626;2023-05-10T05:20:26;15.80;99.90
16174;DHT22;14031;50.158;8.626;2023-05-10T05:22:53;15.80;99.90
16174;DHT22;14031;50.158;8.626;2023-05-10T05:25:20;15.80;99.90
16174;DHT22;14031;50.158;8.626;2023-05-10T05:27:47;15.80;99.90
16174;DHT22;14031;50.158;8.626;2023-05-10T05:30:15;15.80;99.90
16174;DHT22;14031;50.158;8.626;2023-05-10T05:32:42;15.90;99.90
16174;DHT22;14031;50.158;8.626;2023-05-10T05:35:09;15.90;99.90
16174;DHT22;14031;50.158;8.626;2023-05-10T05:37:36;15.90;99.90
16174;DHT22;14031;50.158;8.626;2023-05-10T05:40:03;15.90;99.90
16174;DHT22;14031;50.158;8.626;2023-05-10T05:42:31;15.90;99.90
16174;DHT22;14031;50.158;8.626;2023-05-10T05:44:58;15.90;99.90
16174;DHT22;14031;50.158;8.626;2023-05-10T05:47:26;15.90;99.90
16174;DHT22;14031;50.158;8.626;2023-05-10T05:49:53;15.90;99.90
16174;DHT22;14031;50.158;8.626;2023-05-10T05:52:20;15.90;99.90
16174;DHT22;14031;50.158;8.626;2023-05-10T05:54:47;15.90;99.90
16174;DHT22;14031;50.158;8.626;2023-05-10T05:57:14;15.90;99.90
16174;DHT22;14031;50.158;8.626;2023-05-10T05:59:41;15.90;99.90
16174;DHT22;14031;50.158;8.626;2023-05-10T06:02:09;15.90;99.90
16174;DHT22;14031;50.158;8.626;2023-05-10T06:04:37;15.90;99.90
16174;DHT22;14031;50.158;8.626;2023-05-10T06:07:04;15.80;99.90
16174;DHT22;14031;50.158;8.626;2023-05-10T06:09:31;15.80;99.90
16174;DHT22;14031;50.158;8.626;2023-05-10T06:11:58;15.80;99.90
16174;DHT22;14031;50.158;8.626;2023-05-10T06:14:24;15.90;99.90
16174;DHT22;14031;50.158;8.626;2023-05-10T06:16:51;16.00;99.90
16174;DHT22;14031;50.158;8.626;2023-05-10T06:19:18;16.00;99.90
16174;DHT22;14031;50.158;8.626;2023-05-10T06:21:46;16.00;99.90
16174;DHT22;14031;50.158;8.626;2023-05-10T06:24:12;16.10;99.90
16174;DHT22;14031;50.158;8.626;2023-05-10T06:26:39;16.20;99.90
16174;DHT22;14031;50.158;8.626;2023-05-10T06:29:06;16.30;99.90
16174;DHT22;14031;50.158;8.626;2023-05-10T06:31:33;16.30;99.90
16174;DHT22;14031;50.158;8.626;2023-05-10T06:33:59;16.40;99.90
16174;DHT22;14031;50.158;8.626;2023-05-10T06:36:26;16.40;99.90
16174;DHT22;14031;50.158;8.626;2023-05-10T06:38:54;16.50;99.90
16174;DHT22;14031;50.158;8.626;2023-05-10T06:41:21;16.50;99.90
16174;DHT22;14031;50.158;8.626;2023-05-10T06:43:48;16.60;99.90
16174;DHT22;14031;50.158;8.626;2023-05-10T06:46:14;16.50;99.90
16174;DHT22;14031;50.158;8.626;2023-05-10T06:48:41;16.60;99.90
16174;DHT22;14031;50.158;8.626;2023-05-10T06:51:08;16.70;99.90
16174;DHT22;14031;50.158;8.626;2023-05-10T06:53:35;16.70;99.90
16174;DHT22;14031;50.158;8.626;2023-05-10T06:56:03;16.80;99.90
16174;DHT22;14031;50.158;8.626;2023-05-10T06:58:30;16.90;99.90
16174;DHT22;14031;50.158;8.626;2023-05-10T07:01:02;17.00;99.90
16174;DHT22;14031;50.158;8.626;2023-05-10T07:03:29;17.10;99.90
16174;DHT22;14031;50.158;8.626;2023-05-10T07:06:00;17.10;99.90
16174;DHT22;14031;50.158;8.626;2023-05-10T07:08:28;17.20;99.90
16174;DHT22;14031;50.158;8.626;2023-05-10T07:10:59;17.20;99.90
16174;DHT22;14031;50.158;8.626;2023-05-10T07:13:28;17.30;99.90
16174;DHT22;14031;50.158;8.626;2023-05-10T07:15:54;17.40;99.90
16174;DHT22;14031;50.158;8.626;2023-05-10T07:18:21;17.30;99.90
16174;DHT22;14031;50.158;8.626;2023-05-10T07:20:48;17.50;99.90
16174;DHT22;14031;50.158;8.626;2023-05-10T07:23:14;17.40;99.90
16174;DHT22;14031;50.158;8.626;2023-05-10T07:25:45;17.40;99.90
16174;DHT22;14031;50.158;8.626;2023-05-10T07:28:12;17.40;99.90
16174;DHT22;14031;50.158;8.626;2023-05-10T07:30:40;17.40;99.90
16174;DHT22;14031;50.158;8.626;2023-05-10T07:33:07;17.40;99.90
16174;DHT22;14031;50.158;8.626;2023-05-10T07:35:34;17.40;99.90
16174;DHT22;14031;50.158;8.626;2023-05-10T07:38:02;17.30;99.90
16174;DHT22;14031;50.158;8.626;2023-05-10T07:40:29;17.20;99.90
16174;DHT22;14031;50.158;8.626;2023-05-10T07:42:56;17.10;99.90
16174;DHT22;14031;50.158;8.626;2023-05-10T07:45:23;17.00;99.90
16174;DHT22;14031;50.158;8.626;2023-05-10T07:47:51;17.00;99.90
16174;DHT22;14031;50.158;8.626;2023-05-10T07:50:18;17.00;99.90
16174;DHT22;14031;50.158;8.626;2023-05-10T07:52:46;17.10;99.90
16174;DHT22;14031;50.158;8.626;2023-05-10T07:55:13;17.10;99.90
16174;DHT22;14031;50.158;8.626;2023-05-10T07:57:40;17.20;99.90
16174;DHT22;14031;50.158;8.626;2023-05-10T08:00:07;17.30;99.90
16174;DHT22;14031;50.158;8.626;2023-05-10T08:02:35;17.40;99.90
16174;DHT22;14031;50.158;8.626;2023-05-10T08:05:03;17.50;99.90
16174;DHT22;14031;50.158;8.626;2023-05-10T08:07:30;17.50;99.90
16174;DHT22;14031;50.158;8.626;2023-05-10T08:09:57;17.60;99.90
16174;DHT22;14031;50.158;8.626;2023-05-10T08:12:24;17.70;99.90
16174;DHT22;14031;50.158;8.626;2023-05-10T08:14:51;17.80;99.90
16174;DHT22;14031;50.158;8.626;2023-05-10T08:17:18;17.90;99.90
16174;DHT22;14031;50.158;8.626;2023-05-10T08:19:44;17.90;99.90
16174;DHT22;14031;50.158;8.626;2023-05-10T08:22:12;18.00;99.90
16174;DHT22;14031;50.158;8.626;2023-05-10T08:24:39;18.00;99.90
16174;DHT22;14031;50.158;8.626;2023-05-10T08:27:07;18.10;99.90
16174;DHT22;14031;50.158;8.626;2023-05-10T08:29:34;18.20;99.90
16174;DHT22;14031;50.158;8.626;2023-05-10T08:32:01;18.30;99.90
16174;DHT22;14031;50.158;8.626;2023-05-10T08:34:28;18.40;99.90
16174;DHT22;14031;50.158;8.626;2023-05-10T08:36:56;18.50;99.90
16174;DHT22;14031;50.158;8.626;2023-05-10T08:39:24;18.50;99.90
16174;DHT22;14031;50.158;8.626;2023-05-10T08:41:51;18.50;99.90
16174;DHT22;14031;50.158;8.626;2023-05-10T08:44:20;18.60;99.90
16174;DHT22;14031;50.158;8.626;2023-05-10T08:46:50;18.60;99.90
16174;DHT22;14031;50.158;8.626;2023-05-10T08:49:20;18.60;99.90
16174;DHT22;14031;50.158;8.626;2023-05-10T08:51:50;18.50;99.90
16174;DHT22;14031;50.158;8.626;2023-05-10T08:54:18;18.50;99.90
16174;DHT22;14031;50.158;8.626;2023-05-10T08:56:46;18.30;99.90
16174;DHT22;14031;50.158;8.626;2023-05-10T08:59:13;18.20;99.90
16174;DHT22;14031;50.158;8.626;2023-05-10T09:01:43;18.00;99.90
16174;DHT22;14031;50.158;8.626;2023-05-10T09:04:11;17.90;99.90
16174;DHT22;14031;50.158;8.626;2023-05-10T09:06:38;17.80;99.90
16174;DHT22;14031;50.158;8.626;2023-05-10T09:09:05;17.60;99.90
16174;DHT22;14031;50.158;8.626;2023-05-10T09:11:32;17.40;99.90
16174;DHT22;14031;50.158;8.626;2023-05-10T09:14:01;17.40;99.90
16174;DHT22;14031;50.158;8.626;2023-05-10T09:16:29;17.30;99.90
16174;DHT22;14031;50.158;8.626;2023-05-10T09:18:56;17.10;99.90
16174;DHT22;14031;50.158;8.626;2023-05-10T09:21:22;17.30;99.90
16174;DHT22;14031;50.158;8.626;2023-05-10T09:23:49;17.00;99.90
16174;DHT22;14031;50.158;8.626;2023-05-10T09:26:22;17.00;99.90
16174;DHT22;14031;50.158;8.626;2023-05-10T09:28:53;17.00;99.90
16174;DHT22;14031;50.158;8.626;2023-05-10T09:31:22;17.00;99.90
16174;DHT22;14031;50.158;8.626;2023-05-10T09:33:50;17.20;99.90
16174;DHT22;14031;50.158;8.626;2023-05-10T09:36:17;17.30;99.90
16174;DHT22;14031;50.158;8.626;2023-05-10T09:38:48;17.30;99.90
16174;DHT22;14031;50.158;8.626;2023-05-10T09:41:16;17.60;99.90
16174;DHT22;14031;50.158;8.626;2023-05-10T09:43:43;17.60;99.90
16174;DHT22;14031;50.158;8.626;2023-05-10T09:46:10;17.90;99.90
16174;DHT22;14031;50.158;8.626;2023-05-10T09:48:43;18.10;99.90
16174;DHT22;14031;50.158;8.626;2023-05-10T09:51:10;18.40;99.90
16174;DHT22;14031;50.158;8.626;2023-05-10T09:53:38;18.60;99.90
16174;DHT22;14031;50.158;8.626;2023-05-10T09:56:05;18.80;99.90
16174;DHT22;14031;50.158;8.626;2023-05-10T09:58:36;18.90;99.90
16174;DHT22;14031;50.158;8.626;2023-05-10T10:01:03;19.20;99.90
16174;DHT22;14031;50.158;8.626;2023-05-10T10:03:30;19.30;99.90
16174;DHT22;14031;50.158;8.626;2023-05-10T10:05:58;19.50;99.90
16174;DHT22;14031;50.158;8.626;2023-05-10T10:08:25;19.70;99.90
16174;DHT22;14031;50.158;8.626;2023-05-10T10:10:52;19.90;99.90
16174;DHT22;14031;50.158;8.626;2023-05-10T10:13:19;19.80;99.90
16174;DHT22;14031;50.158;8.626;2023-05-10T10:15:46;19.70;99.90
16174;DHT22;14031;50.158;8.626;2023-05-10T10:18:16;19.60;99.90
16174;DHT22;14031;50.158;8.626;2023-05-10T10:20:44;19.50;99.90
16174;DHT22;14031;50.158;8.626;2023-05-10T10:23:12;19.40;99.90
16174;DHT22;14031;50.158;8.626;2023-05-10T10:25:39;19.40;99.90
16174;DHT22;14031;50.158;8.626;2023-05-10T10:28:21;19.50;99.90
16174;DHT22;14031;50.158;8.626;2023-05-10T10:30:51;19.50;99.90
16174;DHT22;14031;50.158;8.626;2023-05-10T10:33:40;19.50;99.90
16174;DHT22;14031;50.158;8.626;2023-05-10T10:36:15;19.70;99.90
16174;DHT22;14031;50.158;8.626;2023-05-10T10:38:59;19.80;99.90
16174;DHT22;14031;50.158;8.626;2023-05-10T10:41:28;19.70;99.90
16174;DHT22;14031;50.158;8.626;2023-05-10T10:44:30;19.60;99.90
16174;DHT22;14031;50.158;8.626;2023-05-10T10:50:04;19.20;99.90
16174;DHT22;14031;50.158;8.626;2023-05-10T10:52:31;18.80;99.90
16174;DHT22;14031;50.158;8.626;2023-05-10T10:55:02;18.50;99.90
16174;DHT22;14031;50.158;8.626;2023-05-10T10:57:43;18.40;99.90
16174;DHT22;14031;50.158;8.626;2023-05-10T11:00:21;18.20;99.90
16174;DHT22;14031;50.158;8.626;2023-05-10T11:02:49;18.00;99.90
16174;DHT22;14031;50.158;8.626;2023-05-10T11:05:24;17.90;99.90
16174;DHT22;14031;50.158;8.626;2023-05-10T11:07:52;17.80;99.90
16174;DHT22;14031;50.158;8.626;2023-05-10T11:10:21;17.80;99.90
16174;DHT22;14031;50.158;8.626;2023-05-10T11:12:52;17.80;99.90
16174;DHT22;14031;50.158;8.626;2023-05-10T11:15:19;18.00;99.90
16174;DHT22;14031;50.158;8.626;2023-05-10T11:17:47;18.00;99.90
16174;DHT22;14031;50.158;8.626;2023-05-10T11:20:17;18.20;99.90
16174;DHT22;14031;50.158;8.626;2023-05-10T11:22:51;18.40;99.90
16174;DHT22;14031;50.158;8.626;2023-05-10T11:25:18;18.60;99.90
16174;DHT22;14031;50.158;8.626;2023-05-10T11:27:48;18.90;99.90
16174;DHT22;14031;50.158;8.626;2023-05-10T11:30:14;19.10;99.90
16174;DHT22;14031;50.158;8.626;2023-05-10T11:32:41;19.40;99.90
16174;DHT22;14031;50.158;8.626;2023-05-10T11:35:09;19.50;99.90
16174;DHT22;14031;50.158;8.626;2023-05-10T11:37:36;19.80;99.90
16174;DHT22;14031;50.158;8.626;2023-05-10T11:40:07;19.70;99.90
16174;DHT22;14031;50.158;8.626;2023-05-10T11:42:36;19.50;99.90
16174;DHT22;14031;50.158;8.626;2023-05-10T11:45:07;19.30;99.90
16174;DHT22;14031;50.158;8.626;2023-05-10T11:47:34;19.30;99.90
16174;DHT22;14031;50.158;8.626;2023-05-10T11:50:02;19.30;99.90
16174;DHT22;14031;50.158;8.626;2023-05-10T11:52:35;19.30;99.90
16174;DHT22;14031;50.158;8.626;2023-05-10T11:55:02;19.50;99.90
16174;DHT22;14031;50.158;8.626;2023-05-10T11:57:30;19.50;99.90
16174;DHT22;14031;50.158;8.626;2023-05-10T11:59:57;19.50;99.90
16174;DHT22;14031;50.158;8.626;2023-05-10T12:02:25;19.50;99.90
16174;DHT22;14031;50.158;8.626;2023-05-10T12:04:52;19.70;99.90
16174;DHT22;14031;50.158;8.626;2023-05-10T12:07:19;19.70;99.90
16174;DHT22;14031;50.158;8.626;2023-05-10T12:10:07;19.80;99.90
16174;DHT22;14031;50.158;8.626;2023-05-10T12:12:38;19.90;99.90
16174;DHT22;14031;50.158;8.626;2023-05-10T12:15:11;20.00;99.90
16174;DHT22;14031;50.158;8.626;2023-05-10T12:17:39;20.10;99.90
16174;DHT22;14031;50.158;8.626;2023-05-10T12:20:16;20.10;99.90
16174;DHT22;14031;50.158;8.626;2023-05-10T12:22:45;20.20;99.90
16174;DHT22;14031;50.158;8.626;2023-05-10T12:25:12;20.40;99.90
16174;DHT22;14031;50.158;8.626;2023-05-10T12:27:39;20.40;99.90
16174;DHT22;14031;50.158;8.626;2023-05-10T12:30:06;20.60;99.90
16174;DHT22;14031;50.158;8.626;2023-05-10T12:32:43;20.70;99.90
16174;DHT22;14031;50.158;8.626;2023-05-10T12:35:10;20.80;99.90
16174;DHT22;14031;50.158;8.626;2023-05-10T12:37:36;20.90;99.90
16174;DHT22;14031;50.158;8.626;2023-05-10T12:40:09;21.10;99.90
16174;DHT22;14031;50.158;8.626;2023-05-10T12:42:37;21.30;99.90
16174;DHT22;14031;50.158;8.626;2023-05-10T12:45:05;21.70;99.90
16174;DHT22;14031;50.158;8.626;2023-05-10T12:47:32;21.80;99.90
16174;DHT22;14031;50.158;8.626;2023-05-10T12:50:02;21.90;99.90
16174;DHT22;14031;50.158;8.626;2023-05-10T12:52:29;22.10;99.90
16174;DHT22;14031;50.158;8.626;2023-05-10T12:54:57;22.20;99.90
16174;DHT22;14031;50.158;8.626;2023-05-10T12:57:23;22.10;99.90
16174;DHT22;14031;50.158;8.626;2023-05-10T12:59:50;22.10;99.90
16174;DHT22;14031;50.158;8.626;2023-05-10T13:02:17;22.10;99.90
16174;DHT22;14031;50.158;8.626;2023-05-10T13:04:45;22.20;99.90
16174;DHT22;14031;50.158;8.626;2023-05-10T13:07:13;22.30;99.90
16174;DHT22;14031;50.158;8.626;2023-05-10T13:09:40;22.50;99.90
16174;DHT22;14031;50.158;8.626;2023-05-10T13:12:07;22.80;99.90
16174;DHT22;14031;50.158;8.626;2023-05-10T13:14:34;23.00;99.90
16174;DHT22;14031;50.158;8.626;2023-05-10T13:17:01;22.90;99.90
16174;DHT22;14031;50.158;8.626;2023-05-10T13:19:27;22.60;99.90
16174;DHT22;14031;50.158;8.626;2023-05-10T13:21:54;22.30;99.90
16174;DHT22;14031;50.158;8.626;2023-05-10T13:24:22;22.00;99.90
16174;DHT22;14031;50.158;8.626;2023-05-10T13:26:49;21.70;99.90
16174;DHT22;14031;50.158;8.626;2023-05-10T13:29:16;21.60;99.90
16174;DHT22;14031;50.158;8.626;2023-05-10T13:31:43;21.50;99.90
16174;DHT22;14031;50.158;8.626;2023-05-10T13:34:10;21.20;99.90
16174;DHT22;14031;50.158;8.626;2023-05-10T13:36:37;21.10;99.90
16174;DHT22;14031;50.158;8.626;2023-05-10T13:39:04;21.00;99.90
16174;DHT22;14031;50.158;8.626;2023-05-10T13:41:32;21.10;99.90
16174;DHT22;14031;50.158;8.626;2023-05-10T13:43:59;21.20;99.90
16174;DHT22;14031;50.158;8.626;2023-05-10T13:46:26;21.00;99.90
16174;DHT22;14031;50.158;8.626;2023-05-10T13:48:53;21.00;99.90
16174;DHT22;14031;50.158;8.626;2023-05-10T13:51:19;21.00;99.90
16174;DHT22;14031;50.158;8.626;2023-05-10T13:53:46;21.10;99.90
16174;DHT22;14031;50.158;8.626;2023-05-10T13:56:13;21.20;99.90
16174;DHT22;14031;50.158;8.626;2023-05-10T13:58:41;21.20;99.90
16174;DHT22;14031;50.158;8.626;2023-05-10T14:01:08;21.00;99.90
16174;DHT22;14031;50.158;8.626;2023-05-10T14:03:35;21.00;99.90
16174;DHT22;14031;50.158;8.626;2023-05-10T14:06:02;20.90;99.90
16174;DHT22;14031;50.158;8.626;2023-05-10T14:08:29;20.80;99.90
16174;DHT22;14031;50.158;8.626;2023-05-10T14:10:56;20.80;99.90
16174;DHT22;14031;50.158;8.626;2023-05-10T14:13:23;20.90;99.90
16174;DHT22;14031;50.158;8.626;2023-05-10T14:15:53;20.90;99.90
16174;DHT22;14031;50.158;8.626;2023-05-10T14:18:20;21.10;99.90
16174;DHT22;14031;50.158;8.626;2023-05-10T14:20:47;21.30;99.90
16174;DHT22;14031;50.158;8.626;2023-05-10T14:23:14;21.50;99.90
16174;DHT22;14031;50.158;8.626;2023-05-10T14:25:40;21.60;99.90
16174;DHT22;14031;50.158;8.626;2023-05-10T14:28:08;21.70;99.90
16174;DHT22;14031;50.158;8.626;2023-05-10T14:30:34;21.70;99.90
16174;DHT22;14031;50.158;8.626;2023-05-10T14:33:03;21.80;99.90
16174;DHT22;14031;50.158;8.626;2023-05-10T14:35:30;21.90;99.90
16174;DHT22;14031;50.158;8.626;2023-05-10T14:37:57;22.00;99.90
16174;DHT22;14031;50.158;8.626;2023-05-10T14:40:24;22.10;99.90
16174;DHT22;14031;50.158;8.626;2023-05-10T14:42:51;22.20;99.90
16174;DHT22;14031;50.158;8.626;2023-05-10T14:45:18;22.50;99.90
16174;DHT22;14031;50.158;8.626;2023-05-10T14:47:45;22.80;99.90
16174;DHT22;14031;50.158;8.626;2023-05-10T14:50:13;22.90;99.90
16174;DHT22;14031;50.158;8.626;2023-05-10T14:52:40;23.10;99.90
16174;DHT22;14031;50.158;8.626;2023-05-10T14:55:08;23.20;99.90
16174;DHT22;14031;50.158;8.626;2023-05-10T14:57:35;23.20;99.90
16174;DHT22;14031;50.158;8.626;2023-05-10T15:00:02;23.10;99.90
16174;DHT22;14031;50.158;8.626;2023-05-10T15:02:30;23.00;99.90
16174;DHT22;14031;50.158;8.626;2023-05-10T15:04:57;22.90;99.90
16174;DHT22;14031;50.158;8.626;2023-05-10T15:07:25;22.80;99.90
16174;DHT22;14031;50.158;8.626;2023-05-10T15:09:52;23.00;99.90
16174;DHT22;14031;50.158;8.626;2023-05-10T15:12:20;23.10;99.90
16174;DHT22;14031;50.158;8.626;2023-05-10T15:14:47;23.30;99.90
16174;DHT22;14031;50.158;8.626;2023-05-10T15:17:14;23.40;99.90
16174;DHT22;14031;50.158;8.626;2023-05-10T15:19:41;23.40;99.90
16174;DHT22;14031;50.158;8.626;2023-05-10T15:22:08;23.40;99.90
16174;DHT22;14031;50.158;8.626;2023-05-10T15:24:37;23.40;99.90
16174;DHT22;14031;50.158;8.626;2023-05-10T15:27:03;23.50;99.90
16174;DHT22;14031;50.158;8.626;2023-05-10T15:29:30;23.80;99.90
16174;DHT22;14031;50.158;8.626;2023-05-10T15:31:57;24.10;99.90
16174;DHT22;14031;50.158;8.626;2023-05-10T15:34:24;24.30;99.90
16174;DHT22;14031;50.158;8.626;2023-05-10T15:36:51;24.30;99.90
16174;DHT22;14031;50.158;8.626;2023-05-10T15:39:18;24.40;99.90
16174;DHT22;14031;50.158;8.626;2023-05-10T15:41:46;24.30;99.90
16174;DHT22;14031;50.158;8.626;2023-05-10T15:44:13;24.10;99.90
16174;DHT22;14031;50.158;8.626;2023-05-10T15:46:40;23.90;99.90
16174;DHT22;14031;50.158;8.626;2023-05-10T15:49:07;23.70;99.90
16174;DHT22;14031;50.158;8.626;2023-05-10T15:51:33;23.40;99.90